createdAt,value
2022-10-20T00:01:51.844Z,5.05
2022-10-20T00:04:18.537Z,5.15
2022-10-20T00:06:45.162Z,4.85
2022-10-20T00:09:11.987Z,4.88
2022-10-20T00:11:39.326Z,4.55
2022-10-20T00:14:06.247Z,4.53
2022-10-20T00:16:36.946Z,5.22
2022-10-20T00:19:03.991Z,5.25
2022-10-20T00:21:31.833Z,5.20
2022-10-20T00:24:01.471Z,5.47
2022-10-20T00:26:30.110Z,5.20
2022-10-20T00:28:57.701Z,5.63
2022-10-20T00:31:25.992Z,5.93
2022-10-20T00:33:53.485Z,5.25
2022-10-20T00:36:21.892Z,4.50
2022-10-20T00:38:49.413Z,5.20
2022-10-20T00:41:18.208Z,6.10
2022-10-20T00:43:54.221Z,5.07
2022-10-20T00:46:23.892Z,6.60
2022-10-20T00:48:55.301Z,5.85
2022-10-20T00:51:26.495Z,6.07
2022-10-20T00:53:58.360Z,6.97
2022-10-20T00:56:25.172Z,7.30
2022-10-20T00:58:51.835Z,8.75
2022-10-20T01:01:19.079Z,7.78
2022-10-20T01:03:49.141Z,7.68
2022-10-20T01:06:18.274Z,7.43
2022-10-20T01:08:45.076Z,8.15
2022-10-20T01:11:27.640Z,8.70
2022-10-20T01:14:06.804Z,9.48
2022-10-20T01:16:48.702Z,8.98
2022-10-20T01:19:25.496Z,9.75
2022-10-20T01:22:13.446Z,9.30
2022-10-20T01:24:50.802Z,8.98
2022-10-20T01:27:42.155Z,8.93
2022-10-20T01:30:13.428Z,9.80
2022-10-20T01:33:07.320Z,10.05
2022-10-20T01:35:49.175Z,9.13
2022-10-20T01:38:41.270Z,10.38
2022-10-20T01:41:14.203Z,9.70
2022-10-20T01:43:46.280Z,9.15
2022-10-20T01:46:15.777Z,9.48
2022-10-20T01:48:43.367Z,9.32
2022-10-20T01:51:10.690Z,9.90
2022-10-20T01:53:37.477Z,9.95
2022-10-20T01:56:05.094Z,9.60
2022-10-20T01:58:51.361Z,9.82
2022-10-20T02:01:42.676Z,10.95
2022-10-20T02:04:10.712Z,10.80
2022-10-20T02:06:52.526Z,12.02
2022-10-20T02:09:31.847Z,12.13
2022-10-20T02:12:03.250Z,12.05
2022-10-20T02:14:33.184Z,13.00
2022-10-20T02:17:06.659Z,12.38
2022-10-20T02:19:39.626Z,12.43
2022-10-20T02:22:08.862Z,13.10
2022-10-20T02:24:38.377Z,12.32
2022-10-20T02:27:14.122Z,12.25
2022-10-20T02:29:46.845Z,11.85
2022-10-20T02:32:16.210Z,11.93
2022-10-20T02:34:43.479Z,11.55
2022-10-20T02:37:11.044Z,10.27
2022-10-20T02:39:37.742Z,10.48
2022-10-20T02:42:04.399Z,9.60
2022-10-20T02:44:31.014Z,8.90
2022-10-20T02:46:57.689Z,8.05
2022-10-20T02:49:25.215Z,7.80
2022-10-20T02:51:51.849Z,7.78
2022-10-20T02:54:18.519Z,6.80
2022-10-20T02:56:45.206Z,6.85
2022-10-20T02:59:14.922Z,6.03
2022-10-20T03:01:41.788Z,6.38
2022-10-20T03:04:08.846Z,6.00
2022-10-20T03:06:35.564Z,6.20
2022-10-20T03:09:02.671Z,6.07
2022-10-20T03:11:29.653Z,5.57
2022-10-20T03:13:56.299Z,6.85
2022-10-20T03:16:22.975Z,6.25
2022-10-20T03:18:49.689Z,6.72
2022-10-20T03:21:16.297Z,5.97
2022-10-20T03:23:42.897Z,6.43
2022-10-20T03:26:11.204Z,6.32
2022-10-20T03:28:38.950Z,6.35
2022-10-20T03:31:06.072Z,6.80
2022-10-20T03:33:32.918Z,6.82
2022-10-20T03:35:59.521Z,7.00
2022-10-20T03:38:26.247Z,6.22
2022-10-20T03:40:52.955Z,5.88
2022-10-20T03:43:19.610Z,6.65
2022-10-20T03:45:46.228Z,7.03
2022-10-20T03:48:12.861Z,6.38
2022-10-20T03:50:40.196Z,5.65
2022-10-20T03:53:07.436Z,6.68
2022-10-20T03:55:34.050Z,6.10
2022-10-20T03:58:00.679Z,5.95
2022-10-20T04:00:27.352Z,6.25
2022-10-20T04:02:54.035Z,6.53
2022-10-20T04:05:20.926Z,6.28
2022-10-20T04:07:47.699Z,5.88
2022-10-20T04:10:16.530Z,5.60
2022-10-20T04:12:43.650Z,6.43
2022-10-20T04:15:10.890Z,5.53
2022-10-20T04:20:07.292Z,6.40
2022-10-20T04:22:34.310Z,5.53
2022-10-20T04:25:02.048Z,5.90
2022-10-20T04:27:29.338Z,5.82
2022-10-20T04:29:56.012Z,6.25
2022-10-20T04:32:22.637Z,6.13
2022-10-20T04:34:49.274Z,6.07
2022-10-20T04:37:16.042Z,6.28
2022-10-20T04:39:42.779Z,5.72
2022-10-20T04:42:09.422Z,6.32
2022-10-20T04:44:36.048Z,5.72
2022-10-20T04:47:02.725Z,5.65
2022-10-20T04:49:29.391Z,5.93
2022-10-20T04:52:00.646Z,5.80
2022-10-20T04:54:27.841Z,5.13
2022-10-20T04:56:54.532Z,5.93
2022-10-20T04:59:21.462Z,6.07
2022-10-20T05:01:48.230Z,5.57
2022-10-20T05:04:21.220Z,5.45
2022-10-20T05:06:49.088Z,5.47
2022-10-20T05:09:16.529Z,6.13
2022-10-20T05:11:43.305Z,5.90
2022-10-20T05:14:10.029Z,6.07
2022-10-20T05:16:36.929Z,6.00
2022-10-20T05:19:03.560Z,6.03
2022-10-20T05:21:31.513Z,6.53
2022-10-20T05:24:00.323Z,6.75
2022-10-20T05:26:29.476Z,6.30
2022-10-20T05:28:57.142Z,6.65
2022-10-20T05:31:24.007Z,6.25
2022-10-20T05:33:53.694Z,6.03
2022-10-20T05:36:22.924Z,6.13
2022-10-20T05:38:52.154Z,6.32
2022-10-20T05:41:21.592Z,6.22
2022-10-20T05:43:53.940Z,5.57
2022-10-20T05:46:21.091Z,5.68
2022-10-20T05:48:47.862Z,5.57
2022-10-20T05:51:17.105Z,5.35
2022-10-20T05:53:44.704Z,5.20
2022-10-20T05:56:13.893Z,6.05
2022-10-20T05:58:43.298Z,5.68
2022-10-20T06:01:40.273Z,5.28
2022-10-20T06:04:08.715Z,5.30
2022-10-20T06:06:36.197Z,5.25
2022-10-20T06:09:06.391Z,5.20
2022-10-20T06:11:38.443Z,4.85
2022-10-20T06:14:06.311Z,4.80
2022-10-20T06:16:33.420Z,4.57
2022-10-20T06:19:00.163Z,4.45
2022-10-20T06:21:30.459Z,4.70
2022-10-20T06:24:00.781Z,4.78
2022-10-20T06:26:30.019Z,4.70
2022-10-20T06:29:03.607Z,5.13
2022-10-20T06:31:33.699Z,4.60
2022-10-20T06:34:01.394Z,4.65
2022-10-20T06:36:28.448Z,5.25
2022-10-20T06:38:57.144Z,4.78
2022-10-20T06:41:25.429Z,4.65
2022-10-20T06:44:00.936Z,5.13
2022-10-20T06:46:31.339Z,4.43
2022-10-20T06:49:01.395Z,4.40
2022-10-20T06:51:28.131Z,4.72
2022-10-20T06:53:54.956Z,5.07
2022-10-20T06:56:24.837Z,4.45
2022-10-20T06:58:53.792Z,4.15
2022-10-20T07:01:23.754Z,4.95
2022-10-20T07:03:53.268Z,5.78
2022-10-20T07:06:23.957Z,6.10
2022-10-20T07:08:53.808Z,3.13
2022-10-20T07:11:23.649Z,3.38
2022-10-20T07:13:50.423Z,3.95
2022-10-20T07:16:19.885Z,4.55
2022-10-20T07:18:48.560Z,4.28
2022-10-20T07:21:17.602Z,4.00
2022-10-20T07:23:45.276Z,3.85
2022-10-20T07:26:13.725Z,3.97
2022-10-20T07:28:42.785Z,3.55
2022-10-20T07:31:14.053Z,3.30
2022-10-20T07:33:41.301Z,3.30
2022-10-20T07:36:19.033Z,3.90
2022-10-20T07:38:47.072Z,3.35
2022-10-20T07:41:15.354Z,3.13
2022-10-20T07:43:42.635Z,3.17
2022-10-20T07:46:11.126Z,3.08
2022-10-20T07:48:38.528Z,3.30
2022-10-20T07:51:21.513Z,2.83
2022-10-20T07:53:49.323Z,3.03
2022-10-20T07:56:16.534Z,3.00
2022-10-20T07:58:44.178Z,3.13
2022-10-20T08:01:11.023Z,2.95
2022-10-20T08:03:39.041Z,3.35
2022-10-20T08:06:06.429Z,3.70
2022-10-20T08:08:34.027Z,3.45
2022-10-20T08:11:01.377Z,3.50
2022-10-20T08:13:28.558Z,4.15
2022-10-20T08:15:59.979Z,3.35
2022-10-20T08:18:43.364Z,3.25
2022-10-20T08:21:14.740Z,3.03
2022-10-20T08:23:43.362Z,3.88
2022-10-20T08:26:11.541Z,4.18
2022-10-20T08:28:38.635Z,3.38
2022-10-20T08:31:07.216Z,3.45
2022-10-20T08:33:34.965Z,3.75
2022-10-20T08:36:04.207Z,2.83
2022-10-20T08:38:31.115Z,2.72
2022-10-20T08:40:59.500Z,3.58
2022-10-20T08:43:28.233Z,3.22
2022-10-20T08:45:55.016Z,3.25
2022-10-20T08:48:26.268Z,3.05
2022-10-20T08:50:54.044Z,3.15
2022-10-20T08:53:23.988Z,2.67
2022-10-20T08:55:52.083Z,2.90
2022-10-20T08:58:22.646Z,2.58
2022-10-20T09:00:56.957Z,2.65
2022-10-20T09:03:30.871Z,3.08
2022-10-20T09:06:15.269Z,2.80
2022-10-20T09:08:43.754Z,2.80
2022-10-20T09:11:17.295Z,3.08
2022-10-20T09:13:44.472Z,3.63
2022-10-20T09:16:22.065Z,3.28
2022-10-20T09:19:01.427Z,2.75
2022-10-20T09:21:31.794Z,2.67
2022-10-20T09:24:03.718Z,2.67
2022-10-20T09:26:54.173Z,2.65
2022-10-20T09:29:21.025Z,3.05
2022-10-20T09:31:49.809Z,3.70
2022-10-20T09:34:25.303Z,3.28
2022-10-20T09:36:57.417Z,2.80
2022-10-20T09:39:27.844Z,3.22
2022-10-20T09:42:13.618Z,2.80
2022-10-20T09:45:03.801Z,2.80
2022-10-20T09:47:30.974Z,3.03
2022-10-20T09:50:01.445Z,2.78
2022-10-20T09:52:34.814Z,2.97
2022-10-20T09:55:07.655Z,3.33
2022-10-20T09:57:34.821Z,2.83
2022-10-20T10:00:18.855Z,2.53
2022-10-20T10:02:52.219Z,3.38
2022-10-20T10:05:21.019Z,2.88
2022-10-20T10:07:59.082Z,3.25
2022-10-20T10:10:30.588Z,2.97
2022-10-20T10:13:01.023Z,2.63
2022-10-20T10:15:33.549Z,3.28
2022-10-20T10:18:00.803Z,3.05
2022-10-20T10:20:34.483Z,3.00
2022-10-20T10:23:19.129Z,2.90
2022-10-20T10:25:46.266Z,3.28
2022-10-20T10:28:22.661Z,2.92
2022-10-20T10:30:50.191Z,3.30
2022-10-20T10:33:26.058Z,3.33
2022-10-20T10:35:52.988Z,2.83
2022-10-20T10:38:20.278Z,3.05
2022-10-20T10:41:20.008Z,3.83
2022-10-20T10:43:52.601Z,3.35
2022-10-20T10:46:26.236Z,3.05
2022-10-20T10:49:23.486Z,3.50
2022-10-20T10:54:26.130Z,3.40
2022-10-20T10:57:12.552Z,3.22
2022-10-20T10:59:43.097Z,3.60
2022-10-20T11:02:40.266Z,3.28
2022-10-20T11:07:51.156Z,3.63
2022-10-20T11:10:26.143Z,3.50
2022-10-20T11:13:26.133Z,3.30
2022-10-20T11:16:28.889Z,4.13
2022-10-20T11:19:18.216Z,3.53
2022-10-20T11:22:15.924Z,3.50
2022-10-20T11:24:57.660Z,3.70
2022-10-20T11:27:29.556Z,4.18
2022-10-20T11:30:05.709Z,3.55
2022-10-20T11:32:44.048Z,4.05
2022-10-20T11:35:41.164Z,3.83
2022-10-20T11:38:22.983Z,3.40
2022-10-20T11:41:19.106Z,3.83
2022-10-20T11:43:45.747Z,4.38
2022-10-20T11:46:15.871Z,4.13
2022-10-20T11:48:49.196Z,3.97
2022-10-20T11:51:37.073Z,3.42
2022-10-20T11:54:34.159Z,4.05
2022-10-20T11:57:29.418Z,4.07
2022-10-20T12:00:09.815Z,4.22
2022-10-20T12:03:06.947Z,3.90
2022-10-20T12:05:48.915Z,3.63
2022-10-20T12:08:31.086Z,3.80
2022-10-20T12:11:12.987Z,3.95
2022-10-20T12:14:03.430Z,4.50
2022-10-20T12:17:05.011Z,3.83
2022-10-20T12:19:35.170Z,4.07
2022-10-20T12:22:03.505Z,3.72
2022-10-20T12:24:32.144Z,3.95
2022-10-20T12:27:20.705Z,4.15
2022-10-20T12:29:51.181Z,4.00
2022-10-20T12:32:36.456Z,3.50
2022-10-20T12:35:23.100Z,4.40
2022-10-20T12:37:57.286Z,4.40
2022-10-20T12:40:30.263Z,4.00
2022-10-20T12:42:57.479Z,4.15
2022-10-20T12:45:37.880Z,4.00
2022-10-20T12:48:07.982Z,3.97
2022-10-20T12:50:45.367Z,3.42
2022-10-20T12:53:28.781Z,4.63
2022-10-20T12:55:58.561Z,3.80
2022-10-20T12:58:55.632Z,4.53
2022-10-20T13:03:50.930Z,3.65
2022-10-20T13:06:37.422Z,4.75
2022-10-20T13:09:04.257Z,4.25
2022-10-20T13:11:52.770Z,3.55
2022-10-20T13:14:27.610Z,3.65
2022-10-20T13:17:09.389Z,3.97
2022-10-20T13:19:47.108Z,4.30
2022-10-20T13:22:35.791Z,4.65
2022-10-20T13:25:06.175Z,3.58
2022-10-20T13:27:32.875Z,4.00
2022-10-20T13:29:59.632Z,5.20
2022-10-20T13:33:01.713Z,4.68
2022-10-20T13:38:18.843Z,4.55
2022-10-20T13:43:37.902Z,5.03
2022-10-20T13:46:22.942Z,4.13
2022-10-20T13:49:08.273Z,4.50
2022-10-20T13:51:47.368Z,4.80
2022-10-20T13:54:24.703Z,4.53
2022-10-20T13:56:52.332Z,4.55
2022-10-20T14:01:56.229Z,4.75
2022-10-20T14:04:26.357Z,4.18
2022-10-20T14:07:01.597Z,5.13
2022-10-20T14:09:28.666Z,4.68
2022-10-20T14:12:00.221Z,5.00
2022-10-20T14:14:29.458Z,4.65
2022-10-20T14:17:06.499Z,4.50
2022-10-20T14:19:34.039Z,4.57
2022-10-20T14:22:21.357Z,5.10
2022-10-20T14:24:57.372Z,5.05
2022-10-20T14:27:28.816Z,4.60
2022-10-20T14:29:56.617Z,4.78
2022-10-20T14:32:27.404Z,4.85
2022-10-20T14:35:13.905Z,4.60
2022-10-20T14:37:44.787Z,4.97
2022-10-20T14:40:24.374Z,4.75
2022-10-20T14:42:51.721Z,5.25
2022-10-20T14:45:25.093Z,5.20
2022-10-20T14:47:53.491Z,4.32
2022-10-20T14:50:40.843Z,4.55
2022-10-20T14:53:22.688Z,4.95
2022-10-20T14:55:49.451Z,5.15
2022-10-20T14:58:34.555Z,4.65
2022-10-20T15:01:24.435Z,5.00
2022-10-20T15:06:39.406Z,4.85
2022-10-20T15:09:06.342Z,5.18
2022-10-20T15:11:33.152Z,4.60
2022-10-20T15:14:00.451Z,4.45
2022-10-20T15:16:42.493Z,5.07
2022-10-20T15:19:27.350Z,4.93
2022-10-20T15:22:00.577Z,4.70
2022-10-20T15:24:28.605Z,4.55
2022-10-20T15:26:56.729Z,4.93
2022-10-20T15:29:24.171Z,4.93
2022-10-20T15:31:50.810Z,5.07
2022-10-20T15:34:17.555Z,5.13
2022-10-20T15:36:48.899Z,5.32
2022-10-20T15:39:17.715Z,6.57
2022-10-20T15:41:44.355Z,5.78
2022-10-20T15:44:15.809Z,5.53
2022-10-20T15:46:44.755Z,5.28
2022-10-20T15:49:12.273Z,5.10
2022-10-20T15:51:41.205Z,6.25
2022-10-20T15:54:13.631Z,6.00
2022-10-20T15:56:40.526Z,6.47
2022-10-20T15:59:07.218Z,6.75
2022-10-20T16:01:34.005Z,5.72
2022-10-20T16:04:04.890Z,5.63
2022-10-20T16:06:31.530Z,5.50
2022-10-20T16:08:58.242Z,6.25
2022-10-20T16:11:24.976Z,5.90
2022-10-20T16:13:51.596Z,5.55
2022-10-20T16:16:21.199Z,5.78
2022-10-20T16:18:48.001Z,5.47
2022-10-20T16:21:14.652Z,4.97
2022-10-20T16:23:42.477Z,5.45
2022-10-20T16:26:13.245Z,6.05
2022-10-20T16:28:40.424Z,5.72
2022-10-20T16:31:10.049Z,5.45
2022-10-20T16:33:37.007Z,5.90
2022-10-20T16:38:40.191Z,6.05
2022-10-20T16:41:10.585Z,6.15
2022-10-20T16:43:40.633Z,6.45
2022-10-20T16:46:09.318Z,6.40
2022-10-20T16:48:37.785Z,6.22
2022-10-20T16:51:07.051Z,5.15
2022-10-20T16:53:34.146Z,5.90
2022-10-20T16:56:00.884Z,6.32
2022-10-20T16:58:28.038Z,8.70
2022-10-20T17:01:04.067Z,8.55
2022-10-20T17:03:30.904Z,9.73
2022-10-20T17:05:59.834Z,8.02
2022-10-20T17:08:28.094Z,7.88
2022-10-20T17:10:57.007Z,7.80
2022-10-20T17:13:23.782Z,9.30
2022-10-20T17:15:50.906Z,8.75
2022-10-20T17:18:18.432Z,9.90
2022-10-20T17:20:45.177Z,8.68
2022-10-20T17:23:12.010Z,8.02
2022-10-20T17:25:39.563Z,8.60
2022-10-20T17:28:06.288Z,8.85
2022-10-20T17:30:32.967Z,8.98
2022-10-20T17:32:59.794Z,8.20
2022-10-20T17:35:28.713Z,7.75
2022-10-20T17:37:55.332Z,8.85
2022-10-20T17:40:22.481Z,8.77
2022-10-20T17:42:49.238Z,8.52
2022-10-20T17:45:16.030Z,9.32
2022-10-20T17:47:51.027Z,8.07
2022-10-20T17:50:17.683Z,7.88
2022-10-20T17:52:44.364Z,7.88
2022-10-20T17:55:11.036Z,8.48
2022-10-20T17:57:37.757Z,9.52
2022-10-20T18:00:10.927Z,9.65
2022-10-20T18:02:46.971Z,11.73
2022-10-20T18:05:17.037Z,9.95
2022-10-20T18:07:44.177Z,9.85
2022-10-20T18:10:11.974Z,9.73
2022-10-20T18:12:39.373Z,9.43
2022-10-20T18:15:06.854Z,9.38
2022-10-20T18:17:35.881Z,9.18
2022-10-20T18:20:03.357Z,9.48
2022-10-20T18:22:30.076Z,9.77
2022-10-20T18:24:56.770Z,9.25
2022-10-20T18:27:24.433Z,9.18
2022-10-20T18:29:51.091Z,8.68
2022-10-20T18:32:17.872Z,9.13
2022-10-20T18:34:46.266Z,8.98
2022-10-20T18:37:17.729Z,9.88
2022-10-20T18:39:45.754Z,9.07
2022-10-20T18:42:15.334Z,8.32
2022-10-20T18:44:42.881Z,8.90
2022-10-20T18:47:11.844Z,7.97
2022-10-20T18:49:38.476Z,9.07
2022-10-20T18:52:07.560Z,9.88
2022-10-20T18:54:34.375Z,9.20
2022-10-20T18:57:01.104Z,10.38
2022-10-20T18:59:28.110Z,9.25
2022-10-20T19:02:00.356Z,10.90
2022-10-20T19:04:30.551Z,9.60
2022-10-20T19:06:57.224Z,10.82
2022-10-20T19:09:23.874Z,11.77
2022-10-20T19:14:22.760Z,8.63
2022-10-20T19:16:50.247Z,9.23
2022-10-20T19:19:24.845Z,10.05
2022-10-20T19:21:51.502Z,8.93
2022-10-20T19:24:21.394Z,9.07
2022-10-20T19:27:02.320Z,9.68
2022-10-20T19:29:35.250Z,8.60
2022-10-20T19:32:04.652Z,8.85
2022-10-20T19:34:35.633Z,8.43
2022-10-20T19:37:03.683Z,9.85
2022-10-20T19:39:33.490Z,9.80
2022-10-20T19:42:01.678Z,8.75
2022-10-20T19:44:31.919Z,8.85
2022-10-20T19:46:59.256Z,8.90
2022-10-20T19:49:26.852Z,9.77
2022-10-20T19:51:53.869Z,8.43
2022-10-20T19:54:20.809Z,9.45
2022-10-20T19:56:47.593Z,9.93
2022-10-20T19:59:14.557Z,9.60
2022-10-20T20:01:41.213Z,10.45
2022-10-20T20:04:09.179Z,10.77
2022-10-20T20:06:35.847Z,9.88
2022-10-20T20:09:07.891Z,10.70
2022-10-20T20:11:38.517Z,9.82
2022-10-20T20:14:10.370Z,10.80
2022-10-20T20:16:37.698Z,9.98
2022-10-20T20:19:04.816Z,9.88
2022-10-20T20:21:31.773Z,9.98
2022-10-20T20:24:01.772Z,9.82
2022-10-20T20:26:30.865Z,10.02
2022-10-20T20:28:58.080Z,10.15
2022-10-20T20:31:29.024Z,9.85
2022-10-20T20:33:57.653Z,9.95
2022-10-20T20:36:27.121Z,10.82
2022-10-20T20:38:57.875Z,10.38
2022-10-20T20:41:27.326Z,10.60
2022-10-20T20:43:54.535Z,10.05
2022-10-20T20:46:22.956Z,9.90
2022-10-20T20:48:50.565Z,9.88
2022-10-20T20:51:17.576Z,10.23
2022-10-20T20:53:44.302Z,10.02
2022-10-20T20:56:13.904Z,8.95
2022-10-20T20:58:45.292Z,9.52
2022-10-20T21:01:19.008Z,10.07
2022-10-20T21:03:47.755Z,9.65
2022-10-20T21:06:17.209Z,9.63
2022-10-20T21:08:47.641Z,10.23
2022-10-20T21:11:16.942Z,11.05
2022-10-20T21:13:47.541Z,14.10
2022-10-20T21:16:15.192Z,13.80
2022-10-20T21:18:46.028Z,13.15
2022-10-20T21:21:15.577Z,13.57
2022-10-20T21:23:42.861Z,12.48
2022-10-20T21:26:11.780Z,13.48
2022-10-20T21:28:40.703Z,10.85
2022-10-20T21:31:09.462Z,10.65
2022-10-20T21:33:37.027Z,11.07
2022-10-20T21:36:12.514Z,10.75
2022-10-20T21:38:40.187Z,10.57
2022-10-20T21:41:12.829Z,10.07
2022-10-20T21:43:43.388Z,10.38
2022-10-20T21:46:25.536Z,10.30
2022-10-20T21:49:00.914Z,10.60
2022-10-20T21:51:37.642Z,9.80
2022-10-20T21:54:07.822Z,8.98
2022-10-20T21:56:37.234Z,9.95
2022-10-20T21:59:06.022Z,8.90
2022-10-20T22:01:33.095Z,8.55
2022-10-20T22:04:00.003Z,9.93
2022-10-20T22:06:31.200Z,8.88
2022-10-20T22:08:58.910Z,10.40
2022-10-20T22:11:29.644Z,9.63
2022-10-20T22:13:57.294Z,8.77
2022-10-20T22:16:28.154Z,8.90
2022-10-20T22:19:05.880Z,8.77
2022-10-20T22:21:37.206Z,8.70
2022-10-20T22:24:04.685Z,8.82
2022-10-20T22:26:32.262Z,8.45
2022-10-20T22:29:02.336Z,8.48
2022-10-20T22:31:30.200Z,7.88
2022-10-20T22:33:59.344Z,8.85
2022-10-20T22:36:27.340Z,7.82
2022-10-20T22:38:54.155Z,8.80
2022-10-20T22:41:21.431Z,7.72
2022-10-20T22:43:48.095Z,8.52
2022-10-20T22:46:16.024Z,7.75
2022-10-20T22:48:43.174Z,8.30
2022-10-20T22:51:10.910Z,9.15
2022-10-20T22:53:38.655Z,8.13
2022-10-20T22:56:11.969Z,7.97
2022-10-20T22:58:39.657Z,8.43
2022-10-20T23:01:09.228Z,8.48
2022-10-20T23:03:35.989Z,8.75
2022-10-20T23:06:08.632Z,8.60
2022-10-20T23:08:40.454Z,9.10
2022-10-20T23:11:07.283Z,8.35
2022-10-20T23:13:34.013Z,9.27
2022-10-20T23:16:01.298Z,8.40
2022-10-20T23:18:28.595Z,9.40
2022-10-20T23:20:57.402Z,8.55
2022-10-20T23:23:25.023Z,8.52
2022-10-20T23:25:52.045Z,9.55
2022-10-20T23:28:19.246Z,8.88
2022-10-20T23:30:46.142Z,9.35
2022-10-20T23:33:12.874Z,8.00
2022-10-20T23:35:39.693Z,9.00
2022-10-20T23:38:09.214Z,9.23
2022-10-20T23:40:36.396Z,9.52
2022-10-20T23:43:03.127Z,9.02
2022-10-20T23:45:31.797Z,9.07
2022-10-20T23:48:00.877Z,9.30
2022-10-20T23:50:27.522Z,9.43
2022-10-20T23:52:54.270Z,8.75
2022-10-20T23:55:20.909Z,9.43
2022-10-20T23:57:49.716Z,8.50
